Time;durP1;ratioP1;P1;durP2;ratioP2;P2;SDS_P1;SDS_P2;PMS_P1;PMS_P2;Temp;Humidity;BMP_temperature;BMP_pressure;BME280_temperature;BME280_humidity;BME280_pressure;Samples;Min_cycle;Max_cycle;Signal;HPM_P1;HPM_P2
2023/08/25 00:02:21;;;;;;;1.83;1.73;;;20.30;99.90;;;;;;5087882;28;20624;-78
2023/08/25 00:04:48;;;;;;;2.43;2.23;;;20.40;99.90;;;;;;5089466;28;20660;-78
2023/08/25 00:07:15;;;;;;;1.63;1.53;;;20.40;99.90;;;;;;5088965;28;22512;-78
2023/08/25 00:09:44;;;;;;;2.13;1.93;;;20.40;99.90;;;;;;5088670;28;20709;-78
2023/08/25 00:12:11;;;;;;;3.07;2.30;;;20.40;99.90;;;;;;5089099;28;21286;-78
2023/08/25 00:14:37;;;;;;;5.93;2.50;;;20.30;99.90;;;;;;5089652;28;20617;-79
2023/08/25 00:17:04;;;;;;;1.90;1.80;;;20.30;99.90;;;;;;5088909;28;20640;-78
2023/08/25 00:19:32;;;;;;;2.10;1.90;;;20.40;99.90;;;;;;5089214;28;20672;-80
2023/08/25 00:21:59;;;;;;;3.00;2.20;;;20.30;99.90;;;;;;5088787;28;20637;-79
2023/08/25 00:24:26;;;;;;;2.17;1.90;;;20.30;99.90;;;;;;5089217;28;21105;-80
2023/08/25 00:26:53;;;;;;;1.87;1.50;;;20.30;99.90;;;;;;5089046;28;20634;-78
2023/08/25 00:29:20;;;;;;;3.40;2.33;;;20.20;99.90;;;;;;5088664;28;20630;-79
2023/08/25 00:31:46;;;;;;;2.13;1.93;;;20.30;99.90;;;;;;5088572;28;20623;-78
2023/08/25 00:34:13;;;;;;;2.53;1.90;;;20.40;99.90;;;;;;5089524;28;20626;-79
2023/08/25 00:36:41;;;;;;;2.30;2.10;;;20.30;99.90;;;;;;5089064;28;20637;-79
2023/08/25 00:39:08;;;;;;;2.47;2.20;;;20.30;99.90;;;;;;5087720;28;21263;-79
2023/08/25 00:41:35;;;;;;;2.20;2.00;;;20.30;99.90;;;;;;5088633;28;20712;-79
2023/08/25 00:44:02;;;;;;;1.30;1.20;;;20.30;99.90;;;;;;5088405;28;20644;-79
2023/08/25 00:46:30;;;;;;;1.97;1.77;;;20.30;99.90;;;;;;5088934;28;20624;-79
2023/08/25 00:48:57;;;;;;;2.40;2.20;;;20.20;99.90;;;;;;5087713;28;20719;-78
2023/08/25 00:51:26;;;;;;;2.23;2.07;;;20.10;99.90;;;;;;5088709;28;20628;-77
2023/08/25 00:53:54;;;;;;;2.10;1.90;;;20.20;99.90;;;;;;5087256;28;20630;-77
2023/08/25 00:56:21;;;;;;;2.40;2.20;;;20.20;99.90;;;;;;5088034;28;20715;-79
2023/08/25 00:58:49;;;;;;;2.57;2.13;;;20.10;99.90;;;;;;5088686;28;20737;-77
2023/08/25 01:01:17;;;;;;;2.10;2.00;;;20.20;99.90;;;;;;5086330;28;20631;-77
2023/08/25 01:03:45;;;;;;;2.43;2.00;;;20.30;99.90;;;;;;5087975;28;21447;-77
2023/08/25 01:06:11;;;;;;;1.53;1.43;;;20.20;99.90;;;;;;5088351;28;20635;-77
2023/08/25 01:08:39;;;;;;;1.60;1.50;;;20.10;99.90;;;;;;5086859;28;20681;-77
2023/08/25 01:11:21;;;;;;;2.03;1.80;;;20.20;99.90;;;;;;5087226;28;20805;-79
2023/08/25 01:14:01;;;;;;;2.10;2.00;;;20.30;99.90;;;;;;5088656;28;21802;-77
2023/08/25 01:16:35;;;;;;;2.00;1.70;;;20.30;99.90;;;;;;5088572;28;20660;-76
2023/08/25 01:19:05;;;;;;;2.00;1.80;;;20.20;99.90;;;;;;5068294;28;20624;-77
2023/08/25 01:21:36;;;;;;;2.40;2.20;;;20.30;99.90;;;;;;5087519;28;20628;-77
2023/08/25 01:24:13;;;;;;;1.70;1.60;;;20.20;99.90;;;;;;5088042;28;21292;-77
2023/08/25 01:26:42;;;;;;;5.20;2.23;;;20.20;99.90;;;;;;5068348;28;20635;-77
2023/08/25 01:29:10;;;;;;;2.83;2.23;;;20.30;99.90;;;;;;5087569;28;20756;-77
2023/08/25 01:31:38;;;;;;;2.10;1.90;;;20.30;99.90;;;;;;5087049;28;20686;-77
2023/08/25 01:34:06;;;;;;;2.20;1.70;;;20.20;99.90;;;;;;5087856;28;20645;-77
2023/08/25 01:36:41;;;;;;;2.50;2.17;;;20.10;99.90;;;;;;5087635;28;21778;-77
2023/08/25 01:39:11;;;;;;;3.13;2.17;;;20.10;99.90;;;;;;5086876;28;20631;-77
2023/08/25 01:41:45;;;;;;;2.00;1.73;;;20.20;99.90;;;;;;5088303;28;20638;-78
2023/08/25 01:44:15;;;;;;;2.67;2.20;;;20.20;99.90;;;;;;5087593;28;20648;-77
2023/08/25 01:46:44;;;;;;;1.90;1.80;;;20.30;99.90;;;;;;5087697;28;21184;-77
2023/08/25 01:49:13;;;;;;;1.87;1.77;;;20.30;99.90;;;;;;5087089;28;21817;-77
2023/08/25 01:51:42;;;;;;;1.70;1.53;;;20.30;99.90;;;;;;5088018;28;20618;-77
2023/08/25 01:54:09;;;;;;;2.30;1.73;;;20.20;99.90;;;;;;5087588;28;21245;-77
2023/08/25 01:56:38;;;;;;;2.00;1.60;;;20.10;99.90;;;;;;5087536;28;20620;-77
2023/08/25 01:59:06;;;;;;;2.13;1.90;;;20.10;99.90;;;;;;5085919;28;20775;-77
2023/08/25 02:01:33;;;;;;;2.73;1.93;;;20.00;99.90;;;;;;5085060;28;20922;-77
2023/08/25 02:04:00;;;;;;;2.63;2.40;;;20.10;99.90;;;;;;5085858;28;20652;-77
2023/08/25 02:06:27;;;;;;;2.10;1.90;;;20.20;99.90;;;;;;5087115;28;20723;-77
2023/08/25 02:08:53;;;;;;;2.87;2.00;;;20.20;99.90;;;;;;5085227;28;21025;-77
2023/08/25 02:11:20;;;;;;;2.27;2.03;;;20.30;99.90;;;;;;5086759;28;21224;-78
2023/08/25 02:13:48;;;;;;;1.70;1.60;;;20.40;99.90;;;;;;5086844;28;20620;-78
2023/08/25 02:16:16;;;;;;;2.13;1.90;;;20.40;99.90;;;;;;5086395;28;20629;-77
2023/08/25 02:18:44;;;;;;;2.07;1.93;;;20.50;99.90;;;;;;5086118;28;20654;-77
2023/08/25 02:21:12;;;;;;;3.03;1.93;;;20.50;99.90;;;;;;5087719;28;20628;-77
2023/08/25 02:23:40;;;;;;;2.47;2.00;;;20.40;99.90;;;;;;5087023;28;20638;-78
2023/08/25 02:26:08;;;;;;;2.60;2.40;;;20.40;99.90;;;;;;5086136;28;21288;-77
2023/08/25 02:28:37;;;;;;;2.30;2.10;;;20.40;99.90;;;;;;5067334;28;20797;-77
2023/08/25 02:31:04;;;;;;;2.13;1.93;;;20.50;99.90;;;;;;5086537;28;20625;-77
2023/08/25 02:33:34;;;;;;;1.57;1.47;;;20.40;99.90;;;;;;5086975;28;20774;-77
2023/08/25 02:36:02;;;;;;;1.70;1.60;;;20.40;99.90;;;;;;5087340;28;20625;-78
2023/08/25 02:38:30;;;;;;;1.93;1.83;;;20.50;99.90;;;;;;5085449;28;20704;-77
2023/08/25 02:40:58;;;;;;;2.47;2.00;;;20.30;99.90;;;;;;5085485;28;20951;-78
2023/08/25 02:43:26;;;;;;;2.90;1.80;;;20.40;99.90;;;;;;5086615;28;20762;-77
2023/08/25 02:45:59;;;;;;;2.47;2.10;;;20.20;99.90;;;;;;5086558;28;20711;-78
2023/08/25 02:48:27;;;;;;;3.27;1.70;;;20.20;99.90;;;;;;5087117;28;20636;-77
2023/08/25 02:50:55;;;;;;;2.13;1.93;;;20.20;99.90;;;;;;5086325;28;20648;-77
2023/08/25 02:53:22;;;;;;;2.83;2.17;;;20.20;99.90;;;;;;5086249;28;20621;-78
2023/08/25 02:55:49;;;;;;;4.30;2.33;;;20.20;99.90;;;;;;5086119;28;20629;-77
2023/08/25 02:58:16;;;;;;;2.23;1.90;;;20.20;99.90;;;;;;5085681;28;20621;-78
2023/08/25 03:00:42;;;;;;;2.03;1.87;;;20.30;99.90;;;;;;5085739;28;20628;-77
2023/08/25 03:03:09;;;;;;;2.43;2.23;;;20.10;99.90;;;;;;5085316;28;21613;-78
2023/08/25 03:05:38;;;;;;;1.73;1.60;;;20.10;99.90;;;;;;5086209;28;20648;-77
2023/08/25 03:08:10;;;;;;;2.17;1.93;;;20.10;99.90;;;;;;5085979;28;20645;-77
2023/08/25 03:10:37;;;;;;;2.30;2.20;;;20.10;99.90;;;;;;5084984;28;20993;-77
2023/08/25 03:13:04;;;;;;;2.20;2.00;;;20.00;99.90;;;;;;5086621;28;20616;-78
2023/08/25 03:15:31;;;;;;;1.70;1.60;;;20.10;99.90;;;;;;5086406;28;20616;-78
2023/08/25 03:17:58;;;;;;;2.53;2.33;;;20.20;99.90;;;;;;5085885;28;20625;-77
2023/08/25 03:20:25;;;;;;;2.57;2.00;;;20.20;99.90;;;;;;5085070;28;20623;-77
2023/08/25 03:22:52;;;;;;;4.20;1.93;;;20.10;99.90;;;;;;5086293;28;21223;-77
2023/08/25 03:25:20;;;;;;;3.03;2.37;;;20.00;99.90;;;;;;5086027;28;20658;-77
2023/08/25 03:27:47;;;;;;;2.53;2.23;;;20.10;99.90;;;;;;5085665;28;20625;-78
2023/08/25 03:30:14;;;;;;;3.73;2.07;;;20.10;99.90;;;;;;5085400;28;20720;-77
2023/08/25 03:32:40;;;;;;;5.77;2.50;;;20.10;99.90;;;;;;5085323;28;20626;-77
2023/08/25 03:35:08;;;;;;;2.60;2.10;;;20.20;99.90;;;;;;5086888;28;20719;-77
2023/08/25 03:37:35;;;;;;;5.80;2.60;;;20.20;99.90;;;;;;5085587;28;20629;-77
2023/08/25 03:40:02;;;;;;;2.83;1.90;;;20.10;99.90;;;;;;5085496;28;20644;-78
2023/08/25 03:42:30;;;;;;;1.80;1.70;;;19.90;99.90;;;;;;5085518;28;20656;-78
2023/08/25 03:44:57;;;;;;;2.73;2.53;;;19.80;99.90;;;;;;5086122;28;20663;-78
2023/08/25 03:47:24;;;;;;;2.20;2.10;;;19.70;99.90;;;;;;5085517;28;20639;-78
2023/08/25 03:49:51;;;;;;;4.00;2.20;;;19.60;99.90;;;;;;5086221;28;20620;-78
2023/08/25 03:52:17;;;;;;;2.70;2.03;;;19.60;99.90;;;;;;5089273;28;21445;-78
2023/08/25 03:54:44;;;;;;;2.13;1.93;;;19.60;99.90;;;;;;5090053;28;20619;-79
2023/08/25 03:57:11;;;;;;;2.63;2.20;;;19.60;99.90;;;;;;5089471;28;20635;-78
2023/08/25 03:59:39;;;;;;;1.80;1.70;;;19.70;99.90;;;;;;5089559;28;20681;-78
2023/08/25 04:02:06;;;;;;;2.77;2.07;;;19.50;99.90;;;;;;5087998;28;20636;-78
2023/08/25 04:04:33;;;;;;;2.27;2.07;;;19.60;99.90;;;;;;5089052;28;21789;-77
2023/08/25 04:07:00;;;;;;;3.00;1.87;;;19.70;99.90;;;;;;5087870;28;20651;-77
2023/08/25 04:09:27;;;;;;;3.33;2.60;;;19.80;99.90;;;;;;5088588;28;20631;-78
2023/08/25 04:11:55;;;;;;;7.07;2.43;;;19.80;99.90;;;;;;5088609;28;21253;-77
2023/08/25 04:14:22;;;;;;;3.00;2.27;;;19.70;99.90;;;;;;5085293;28;21647;-77
2023/08/25 04:16:50;;;;;;;2.73;2.50;;;19.90;99.90;;;;;;5088414;28;20906;-77
2023/08/25 04:19:20;;;;;;;2.70;2.07;;;20.00;99.90;;;;;;5087980;28;21105;-77
2023/08/25 04:21:47;;;;;;;2.90;2.40;;;19.90;99.90;;;;;;5089109;28;20623;-77
2023/08/25 04:24:14;;;;;;;2.40;2.23;;;19.70;99.90;;;;;;5089507;28;20660;-78
2023/08/25 04:26:41;;;;;;;4.13;2.10;;;19.80;99.90;;;;;;5088058;28;20636;-77
2023/08/25 04:29:09;;;;;;;2.00;1.90;;;19.80;99.90;;;;;;5084826;28;20627;-77
2023/08/25 04:31:36;;;;;;;3.40;2.53;;;19.80;99.90;;;;;;5087686;28;21210;-79
2023/08/25 04:34:06;;;;;;;2.30;2.13;;;19.70;99.90;;;;;;5087898;28;20630;-86
2023/08/25 04:36:33;;;;;;;3.20;2.90;;;19.70;99.90;;;;;;5085797;28;20775;-83
2023/08/25 04:39:00;;;;;;;2.77;2.37;;;19.70;99.90;;;;;;5088376;28;20204;-83
2023/08/25 04:41:27;;;;;;;6.63;2.60;;;19.80;99.90;;;;;;5085476;28;20632;-83
2023/08/25 04:43:53;;;;;;;3.43;2.30;;;19.80;99.90;;;;;;5083777;28;20632;-81
2023/08/25 04:46:20;;;;;;;2.73;1.90;;;19.80;99.90;;;;;;5086729;28;21807;-82
2023/08/25 04:48:48;;;;;;;3.03;2.73;;;19.70;99.90;;;;;;5087177;28;21872;-83
2023/08/25 04:51:16;;;;;;;3.20;2.90;;;19.80;99.90;;;;;;5088266;28;20639;-82
2023/08/25 04:53:44;;;;;;;2.70;2.50;;;19.80;99.90;;;;;;5086782;28;20628;-82
2023/08/25 04:56:11;;;;;;;2.33;2.13;;;19.80;99.90;;;;;;5087213;28;20629;-82
2023/08/25 04:58:38;;;;;;;2.90;2.67;;;19.70;99.90;;;;;;5087455;28;20642;-82
2023/08/25 05:01:05;;;;;;;3.37;2.97;;;19.60;99.90;;;;;;5083948;28;21084;-81
2023/08/25 05:03:32;;;;;;;2.80;2.60;;;19.70;99.90;;;;;;5081749;28;20647;-82
2023/08/25 05:05:59;;;;;;;4.03;2.20;;;19.70;99.90;;;;;;5088350;28;20660;-79
2023/08/25 05:08:27;;;;;;;2.53;2.33;;;19.70;99.90;;;;;;5085628;28;21210;-89
2023/08/25 05:10:54;;;;;;;2.20;2.00;;;19.80;99.90;;;;;;5088969;28;21007;-85
2023/08/25 05:13:21;;;;;;;2.80;2.37;;;19.90;99.90;;;;;;5087970;28;20782;-84
2023/08/25 05:15:48;;;;;;;3.70;2.03;;;19.80;99.90;;;;;;5087095;28;20620;-87
2023/08/25 05:18:15;;;;;;;2.57;2.37;;;19.80;99.90;;;;;;5089407;28;21230;-88
2023/08/25 05:20:42;;;;;;;2.40;2.20;;;19.80;99.90;;;;;;5090682;28;20636;-89
2023/08/25 05:23:10;;;;;;;4.63;2.70;;;20.00;99.90;;;;;;5090862;28;21696;-88
2023/08/25 05:25:43;;;;;;;2.90;2.67;;;20.10;99.90;;;;;;5090913;28;20647;-89
2023/08/25 05:28:10;;;;;;;2.27;2.10;;;20.20;99.90;;;;;;5088925;28;21021;-78
2023/08/25 05:30:36;;;;;;;5.80;2.40;;;20.30;99.90;;;;;;5086717;28;20633;-82
2023/08/25 05:33:04;;;;;;;3.00;2.70;;;20.40;99.90;;;;;;5088145;28;20717;-82
2023/08/25 05:35:30;;;;;;;2.93;2.30;;;20.40;99.90;;;;;;5088040;28;20720;-81
2023/08/25 05:37:57;;;;;;;3.37;2.43;;;20.50;99.90;;;;;;5077410;28;20679;-80
2023/08/25 05:40:24;;;;;;;2.43;2.23;;;20.60;99.90;;;;;;5085653;28;20740;-81
2023/08/25 05:42:52;;;;;;;2.40;2.20;;;20.70;99.90;;;;;;5082513;28;20619;-80
2023/08/25 05:45:19;;;;;;;2.60;2.40;;;20.70;99.90;;;;;;5087131;28;20664;-81
2023/08/25 05:47:46;;;;;;;2.40;2.20;;;20.80;99.90;;;;;;5083142;28;21184;-81
2023/08/25 05:50:12;;;;;;;3.13;2.20;;;20.80;99.90;;;;;;5080049;28;21265;-82
2023/08/25 05:52:39;;;;;;;2.30;2.17;;;20.70;99.90;;;;;;5080812;28;20674;-84
2023/08/25 05:55:07;;;;;;;2.73;2.53;;;20.70;99.90;;;;;;5082995;28;21018;-81
2023/08/25 05:57:34;;;;;;;2.27;2.13;;;20.60;99.90;;;;;;5086608;28;21229;-81
2023/08/25 06:00:05;;;;;;;2.47;2.27;;;20.50;99.90;;;;;;5080076;28;20633;-80
2023/08/25 06:02:33;;;;;;;3.43;2.63;;;20.50;99.90;;;;;;5085556;28;20685;-81
2023/08/25 06:05:00;;;;;;;3.50;2.43;;;20.60;99.90;;;;;;5084122;28;21219;-81
2023/08/25 06:07:27;;;;;;;2.50;2.33;;;20.70;99.90;;;;;;5083500;28;21634;-83
2023/08/25 06:09:54;;;;;;;5.67;2.77;;;20.70;99.90;;;;;;5079974;28;20633;-81
2023/08/25 06:12:21;;;;;;;3.10;2.87;;;20.60;99.90;;;;;;5086746;28;20636;-81
2023/08/25 06:14:49;;;;;;;2.70;2.47;;;20.50;99.90;;;;;;5086659;28;20638;-81
2023/08/25 06:17:17;;;;;;;2.33;2.17;;;20.50;99.90;;;;;;5077398;28;20664;-80
2023/08/25 06:19:44;;;;;;;2.43;2.33;;;20.40;99.90;;;;;;5081603;28;20628;-81
2023/08/25 06:22:11;;;;;;;4.10;2.87;;;20.50;99.90;;;;;;5085068;28;20630;-81
2023/08/25 06:24:38;;;;;;;5.60;2.87;;;20.50;99.90;;;;;;5084448;28;20631;-79
2023/08/25 06:27:04;;;;;;;3.57;2.80;;;20.50;99.90;;;;;;5082081;28;21081;-79
2023/08/25 06:29:31;;;;;;;3.03;2.73;;;20.50;99.90;;;;;;5082726;28;22107;-80
2023/08/25 06:31:58;;;;;;;4.30;3.87;;;20.60;99.90;;;;;;5082656;28;20641;-82
2023/08/25 06:34:28;;;;;;;3.07;2.87;;;20.50;99.90;;;;;;5079904;28;21458;-81
2023/08/25 06:37:00;;;;;;;4.10;3.33;;;20.60;99.90;;;;;;5085461;28;20616;-83
2023/08/25 06:39:37;;;;;;;3.20;2.90;;;20.50;99.90;;;;;;5084950;28;20654;-81
2023/08/25 06:42:05;;;;;;;9.63;2.67;;;20.50;99.90;;;;;;5085085;28;20633;-83
2023/08/25 06:44:32;;;;;;;2.83;2.60;;;20.50;99.90;;;;;;5084223;28;20622;-81
2023/08/25 06:46:59;;;;;;;3.33;2.37;;;20.50;99.90;;;;;;5085226;28;20662;-83
2023/08/25 06:49:30;;;;;;;3.30;3.00;;;20.50;99.90;;;;;;5083549;28;20629;-83
2023/08/25 06:51:57;;;;;;;3.07;2.87;;;20.50;99.90;;;;;;5085778;28;20633;-82
2023/08/25 06:54:25;;;;;;;3.17;2.90;;;20.40;99.90;;;;;;5086536;28;21018;-83
2023/08/25 06:56:52;;;;;;;3.30;3.00;;;20.40;99.90;;;;;;5084892;28;20769;-81
2023/08/25 06:59:28;;;;;;;3.23;2.07;;;20.30;99.90;;;;;;5084861;28;20652;-82
2023/08/25 07:02:03;;;;;;;2.70;2.50;;;20.20;99.90;;;;;;5084443;28;20625;-82
2023/08/25 07:04:34;;;;;;;2.33;2.13;;;20.10;99.90;;;;;;5086308;28;20620;-83
2023/08/25 07:07:02;;;;;;;3.30;2.57;;;20.10;99.90;;;;;;5085488;28;20650;-82
2023/08/25 07:12:25;;;;;;;3.63;2.07;;;20.20;99.90;;;;;;5081038;28;20669;-82
2023/08/25 07:14:53;;;;;;;2.30;2.10;;;20.10;99.90;;;;;;5084043;28;20643;-80
2023/08/25 07:17:22;;;;;;;3.23;2.20;;;20.10;99.90;;;;;;5082469;28;20747;-81
2023/08/25 07:19:51;;;;;;;4.90;2.73;;;20.10;99.90;;;;;;5083943;28;20768;-81
2023/08/25 07:22:18;;;;;;;3.43;2.70;;;20.20;99.90;;;;;;5085588;28;20779;-80
2023/08/25 07:24:46;;;;;;;2.40;2.20;;;20.00;99.90;;;;;;5085339;28;20618;-82
2023/08/25 07:27:13;;;;;;;3.53;2.50;;;19.90;99.90;;;;;;5089382;28;20662;-81
2023/08/25 07:29:39;;;;;;;4.57;3.43;;;19.90;99.90;;;;;;5086146;28;20634;-81
2023/08/25 07:32:06;;;;;;;3.00;2.80;;;20.00;99.90;;;;;;5089277;28;20790;-81
2023/08/25 07:34:33;;;;;;;3.17;2.97;;;19.90;99.90;;;;;;5088869;28;21903;-81
2023/08/25 07:37:01;;;;;;;3.53;3.27;;;19.90;99.90;;;;;;5089710;28;20710;-82
2023/08/25 07:39:29;;;;;;;2.93;2.67;;;19.90;99.90;;;;;;5087232;28;20746;-83
2023/08/25 07:41:56;;;;;;;3.27;2.97;;;19.80;99.90;;;;;;5089385;28;21261;-82
2023/08/25 07:44:22;;;;;;;3.13;2.93;;;19.90;99.90;;;;;;5088192;28;20625;-81
2023/08/25 07:46:49;;;;;;;3.27;2.97;;;19.90;99.90;;;;;;5088952;28;20659;-80
2023/08/25 07:49:16;;;;;;;6.03;2.77;;;19.90;99.90;;;;;;5086664;28;20639;-83
2023/08/25 07:51:47;;;;;;;4.47;3.20;;;19.90;99.90;;;;;;5084947;28;21003;-84
2023/08/25 07:54:15;;;;;;;5.60;3.30;;;19.80;99.90;;;;;;5090303;28;20716;-82
2023/08/25 07:56:42;;;;;;;7.43;3.60;;;19.90;99.90;;;;;;5092896;28;20628;-88
2023/08/25 07:59:13;;;;;;;6.40;4.10;;;19.80;99.90;;;;;;5089934;28;21211;-89
2023/08/25 08:01:48;;;;;;;2.60;2.40;;;19.80;99.90;;;;;;5090740;28;21678;-89
2023/08/25 08:04:17;;;;;;;3.73;2.37;;;19.80;99.90;;;;;;5086442;28;21369;-88
2023/08/25 08:06:44;;;;;;;5.33;2.40;;;19.70;99.90;;;;;;5088356;28;20794;-88
2023/08/25 08:09:11;;;;;;;2.87;2.27;;;19.70;99.90;;;;;;5089304;28;20927;-89
2023/08/25 08:11:40;;;;;;;3.70;3.30;;;19.70;99.90;;;;;;5091896;28;20707;-88
2023/08/25 08:14:06;;;;;;;3.80;3.03;;;19.60;99.90;;;;;;5090669;28;21031;-88
2023/08/25 08:16:37;;;;;;;4.60;3.33;;;19.80;99.90;;;;;;5089951;28;21672;-88
2023/08/25 08:19:05;;;;;;;3.47;2.13;;;19.80;99.90;;;;;;5086312;28;21419;-87
2023/08/25 08:21:35;;;;;;;2.40;2.17;;;19.80;99.90;;;;;;5089495;28;22046;-87
2023/08/25 08:24:13;;;;;;;3.17;2.60;;;19.80;99.90;;;;;;5088546;28;20717;-84
2023/08/25 08:26:41;;;;;;;2.53;2.33;;;19.80;99.90;;;;;;5083270;28;21408;-83
2023/08/25 08:29:11;;;;;;;6.70;3.60;;;19.70;99.90;;;;;;5081886;28;20625;-82
2023/08/25 08:31:38;;;;;;;5.00;3.13;;;19.70;99.90;;;;;;5084876;28;21226;-82
2023/08/25 08:34:05;;;;;;;3.10;2.80;;;19.80;99.90;;;;;;5087512;28;20766;-76
2023/08/25 08:36:32;;;;;;;4.43;2.43;;;19.80;99.90;;;;;;5086878;28;20625;-82
2023/08/25 08:39:03;;;;;;;3.80;3.50;;;19.80;99.90;;;;;;5087691;28;20628;-83
2023/08/25 08:41:31;;;;;;;3.40;3.10;;;19.80;99.90;;;;;;5087755;28;20664;-83
2023/08/25 08:44:04;;;;;;;2.83;2.40;;;19.80;99.90;;;;;;5087571;28;21288;-83
2023/08/25 08:46:36;;;;;;;3.33;3.03;;;19.70;99.90;;;;;;5088090;28;21251;-85
2023/08/25 08:49:04;;;;;;;3.77;2.67;;;19.80;99.90;;;;;;5087753;28;20623;-86
2023/08/25 08:51:32;;;;;;;3.80;3.50;;;19.80;99.90;;;;;;5090172;28;20667;-86
2023/08/25 08:53:59;;;;;;;2.93;2.53;;;19.80;99.90;;;;;;5087865;28;20617;-86
2023/08/25 08:56:27;;;;;;;4.53;3.10;;;19.80;99.90;;;;;;5087176;28;20853;-85
2023/08/25 08:58:54;;;;;;;3.73;2.90;;;19.80;99.90;;;;;;5088153;28;20656;-85
2023/08/25 09:01:22;;;;;;;3.40;3.00;;;19.80;99.90;;;;;;5088938;28;20595;-87
2023/08/25 09:03:50;;;;;;;5.87;3.17;;;19.80;99.90;;;;;;5089652;28;20699;-88
2023/08/25 09:06:18;;;;;;;6.07;2.87;;;19.80;99.90;;;;;;5088461;28;20791;-86
2023/08/25 09:08:45;;;;;;;3.73;3.43;;;19.70;99.90;;;;;;5088253;28;20624;-87
2023/08/25 09:11:12;;;;;;;5.77;3.60;;;19.70;99.90;;;;;;5088261;28;20719;-86
2023/08/25 09:13:39;;;;;;;2.80;2.60;;;19.80;99.90;;;;;;5088613;28;20711;-85
2023/08/25 09:16:12;;;;;;;4.03;2.57;;;19.80;99.90;;;;;;5089450;28;20733;-86
2023/08/25 09:18:40;;;;;;;3.50;3.20;;;19.90;99.90;;;;;;5087465;28;20624;-86
2023/08/25 09:21:17;;;;;;;3.70;3.40;;;20.10;99.90;;;;;;5085289;28;20790;-86
2023/08/25 09:23:54;;;;;;;5.20;3.80;;;20.10;99.90;;;;;;5085466;28;20670;-87
2023/08/25 09:26:21;;;;;;;3.80;3.33;;;20.20;99.90;;;;;;5087502;28;21309;-86
2023/08/25 09:28:48;;;;;;;3.87;3.03;;;20.30;99.90;;;;;;5084792;28;20833;-85
2023/08/25 09:31:25;;;;;;;11.93;3.90;;;20.40;99.90;;;;;;5088331;28;20717;-86
2023/08/25 09:33:59;;;;;;;3.77;3.47;;;20.40;99.90;;;;;;5088076;28;20729;-86
2023/08/25 09:36:26;;;;;;;2.77;2.53;;;20.50;99.90;;;;;;5088967;28;21170;-87
2023/08/25 09:38:53;;;;;;;3.13;2.70;;;20.60;99.90;;;;;;5088347;28;20708;-85
2023/08/25 09:41:24;;;;;;;3.90;3.40;;;20.70;99.90;;;;;;5089958;28;20730;-85
2023/08/25 09:43:51;;;;;;;3.03;2.83;;;20.80;99.90;;;;;;5090470;28;20732;-89
2023/08/25 09:46:26;;;;;;;3.90;2.73;;;20.90;99.90;;;;;;5089505;28;20750;-85
2023/08/25 09:49:00;;;;;;;3.73;3.17;;;20.90;99.90;;;;;;5087582;28;20629;-86
2023/08/25 09:51:30;;;;;;;3.20;2.80;;;21.00;99.90;;;;;;5089258;28;20624;-87
2023/08/25 09:53:58;;;;;;;2.93;2.73;;;21.10;99.90;;;;;;5088243;28;20658;-88
2023/08/25 09:56:48;;;;;;;7.70;2.97;;;21.10;99.90;;;;;;5090524;28;20654;-88
2023/08/25 09:59:17;;;;;;;3.40;3.10;;;21.30;99.90;;;;;;5075913;28;20623;-86
2023/08/25 10:01:48;;;;;;;2.50;2.30;;;21.60;99.90;;;;;;5085118;28;21029;-75
2023/08/25 10:04:20;;;;;;;2.90;2.60;;;21.80;99.90;;;;;;5086027;28;21232;-80
2023/08/25 10:06:46;;;;;;;6.87;2.57;;;21.80;99.90;;;;;;5083313;28;20713;-83
2023/08/25 10:09:19;;;;;;;3.43;3.13;;;21.80;99.90;;;;;;5084725;28;20634;-82
2023/08/25 10:11:48;;;;;;;2.63;2.43;;;21.70;99.90;;;;;;5082208;28;20639;-82
2023/08/25 10:14:15;;;;;;;3.33;2.80;;;21.70;99.90;;;;;;5087213;28;20656;-84
2023/08/25 10:16:49;;;;;;;3.20;2.30;;;21.70;99.90;;;;;;5088571;28;20612;-83
2023/08/25 10:19:23;;;;;;;2.20;2.10;;;21.80;99.90;;;;;;5087227;28;20711;-77
2023/08/25 10:21:51;;;;;;;2.83;2.63;;;21.80;99.90;;;;;;5086104;28;20637;-79
2023/08/25 10:24:19;;;;;;;4.43;2.10;;;21.90;99.90;;;;;;5086778;28;20633;-79
2023/08/25 10:26:47;;;;;;;3.60;2.67;;;21.90;99.90;;;;;;5086483;28;20647;-80
2023/08/25 10:29:17;;;;;;;2.10;1.93;;;21.90;99.90;;;;;;5085455;28;20619;-83
2023/08/25 10:31:51;;;;;;;2.50;2.30;;;21.90;99.90;;;;;;5085663;28;20631;-82
2023/08/25 10:34:33;;;;;;;3.10;2.60;;;21.90;99.90;;;;;;5079742;28;20620;-76
2023/08/25 10:37:07;;;;;;;3.00;2.70;;;21.80;99.90;;;;;;5086234;28;20615;-84
2023/08/25 10:39:48;;;;;;;2.60;2.40;;;21.80;99.90;;;;;;5083662;28;20663;-81
2023/08/25 10:42:19;;;;;;;2.80;2.60;;;21.80;99.90;;;;;;5083166;28;21051;-80
2023/08/25 10:44:46;;;;;;;2.20;2.00;;;21.70;99.90;;;;;;5085641;28;20633;-88
2023/08/25 10:47:19;;;;;;;3.13;2.87;;;21.70;99.90;;;;;;5085473;28;20674;-81
2023/08/25 10:49:47;;;;;;;3.63;2.40;;;21.60;99.90;;;;;;5085817;28;20635;-83
2023/08/25 10:52:15;;;;;;;2.77;2.57;;;21.80;99.90;;;;;;5085090;28;20627;-79
2023/08/25 10:54:42;;;;;;;2.90;2.70;;;21.80;99.90;;;;;;5084460;28;20635;-78
2023/08/25 10:57:19;;;;;;;3.40;3.00;;;21.90;99.90;;;;;;5085813;28;20623;-77
2023/08/25 10:59:51;;;;;;;2.10;1.97;;;22.10;99.90;;;;;;5085023;28;20622;-77
2023/08/25 11:02:35;;;;;;;3.40;2.87;;;22.00;99.90;;;;;;5089200;28;20622;-77
2023/08/25 11:05:41;;;;;;;3.07;2.77;;;22.10;99.90;;;;;;5089972;28;20643;-77
2023/08/25 11:08:27;;;;;;;3.30;2.40;;;22.30;99.90;;;;;;4993453;28;21194;-77
2023/08/25 11:11:13;;;;;;;3.13;2.27;;;22.40;99.90;;;;;;5084266;28;20644;-77
2023/08/25 11:13:42;;;;;;;4.10;3.17;;;22.40;99.90;;;;;;5090433;28;20626;-76
2023/08/25 11:16:10;;;;;;;2.67;2.47;;;22.30;99.90;;;;;;5089496;28;20624;-77
2023/08/25 11:18:40;;;;;;;3.20;2.90;;;22.40;99.90;;;;;;5089908;28;20716;-77
2023/08/25 11:21:08;;;;;;;3.00;2.80;;;22.40;99.90;;;;;;5089003;28;20617;-77
2023/08/25 11:23:39;;;;;;;11.03;2.90;;;22.30;99.90;;;;;;5089980;28;20628;-76
2023/08/25 11:26:08;;;;;;;3.33;3.10;;;22.40;99.90;;;;;;5090250;28;21074;-77
2023/08/25 11:28:35;;;;;;;3.03;2.83;;;22.50;99.90;;;;;;5088494;28;20648;-77
2023/08/25 11:31:03;;;;;;;3.17;2.83;;;22.50;99.90;;;;;;5088856;28;21197;-77
2023/08/25 11:33:31;;;;;;;3.93;3.00;;;22.50;99.90;;;;;;5089395;28;20634;-77
2023/08/25 11:35:58;;;;;;;3.47;2.83;;;22.60;99.90;;;;;;5089621;28;20740;-77
2023/08/25 11:38:27;;;;;;;3.17;2.40;;;22.80;99.90;;;;;;5089898;28;21161;-77
2023/08/25 11:40:57;;;;;;;2.30;2.10;;;22.80;99.90;;;;;;5088774;28;21423;-77
2023/08/25 11:43:28;;;;;;;3.73;3.23;;;22.90;99.90;;;;;;5088685;28;21490;-77
2023/08/25 11:45:55;;;;;;;3.03;2.83;;;23.00;99.90;;;;;;5087131;28;20626;-78
2023/08/25 11:48:23;;;;;;;3.40;3.10;;;22.90;99.90;;;;;;5087352;28;21318;-78
2023/08/25 11:50:50;;;;;;;5.37;3.20;;;22.80;99.90;;;;;;5088804;28;20634;-77
2023/08/25 11:53:17;;;;;;;3.80;2.80;;;22.90;99.90;;;;;;5087791;28;20637;-77
2023/08/25 11:55:58;;;;;;;3.80;3.50;;;22.90;99.90;;;;;;5085985;28;20729;-77
2023/08/25 11:58:29;;;;;;;6.30;3.83;;;23.10;99.90;;;;;;5089049;28;20614;-77
2023/08/25 12:01:00;;;;;;;3.13;2.93;;;23.40;99.90;;;;;;5088792;28;20630;-77
2023/08/25 12:03:27;;;;;;;3.63;3.23;;;24.00;99.90;;;;;;5087577;28;21126;-77
2023/08/25 12:05:54;;;;;;;4.30;3.80;;;24.50;99.90;;;;;;5087440;28;21679;-77
2023/08/25 12:08:21;;;;;;;3.70;3.40;;;24.60;99.90;;;;;;5086361;28;21712;-77
2023/08/25 12:10:49;;;;;;;3.80;3.50;;;24.60;99.90;;;;;;5086792;28;20649;-77
2023/08/25 12:13:16;;;;;;;3.10;2.80;;;24.50;99.90;;;;;;5087664;28;20640;-78
2023/08/25 12:15:45;;;;;;;5.67;3.03;;;24.40;99.90;;;;;;5088319;28;20656;-78
2023/08/25 12:18:13;;;;;;;4.20;3.70;;;24.30;99.90;;;;;;5088103;28;21682;-78
2023/08/25 12:20:44;;;;;;;3.17;2.87;;;24.30;99.90;;;;;;5088230;28;21217;-77
2023/08/25 12:23:10;;;;;;;3.73;3.27;;;24.20;99.90;;;;;;5086877;28;20622;-82
2023/08/25 12:25:37;;;;;;;6.00;3.80;;;24.10;99.90;;;;;;5089207;28;20998;-75
2023/08/25 12:28:06;;;;;;;5.10;4.27;;;24.00;99.90;;;;;;5086944;28;20780;-76
2023/08/25 12:30:33;;;;;;;3.73;3.43;;;24.00;99.90;;;;;;5087800;28;20664;-75
2023/08/25 12:33:00;;;;;;;3.30;3.00;;;23.90;99.90;;;;;;5089482;28;20656;-76
2023/08/25 12:35:26;;;;;;;3.80;3.50;;;24.00;99.90;;;;;;5088833;28;20631;-76
2023/08/25 12:37:53;;;;;;;3.40;3.10;;;24.00;99.90;;;;;;5087724;28;20625;-76
2023/08/25 12:40:21;;;;;;;3.20;2.93;;;24.00;99.90;;;;;;5089009;28;20630;-75
2023/08/25 12:42:50;;;;;;;4.20;3.80;;;24.00;99.90;;;;;;5088316;28;20680;-76
2023/08/25 12:45:18;;;;;;;5.37;4.00;;;24.00;99.90;;;;;;5088526;28;20717;-77
2023/08/25 12:47:45;;;;;;;6.10;3.80;;;24.00;99.90;;;;;;5087940;28;20655;-77
2023/08/25 12:50:12;;;;;;;6.53;3.70;;;24.10;99.90;;;;;;5087281;28;20635;-77
2023/08/25 12:52:39;;;;;;;3.13;2.93;;;24.20;99.90;;;;;;5088513;28;20627;-77
2023/08/25 12:55:10;;;;;;;3.57;2.97;;;24.40;99.90;;;;;;5088194;28;21190;-77
2023/08/25 12:57:37;;;;;;;3.73;3.37;;;24.50;99.90;;;;;;5088953;28;20656;-77
2023/08/25 13:00:04;;;;;;;3.40;3.10;;;24.60;99.90;;;;;;5087189;28;20639;-77